createdAt,value
2023-03-30T00:01:24.856Z,87.20
2023-03-30T00:03:55.334Z,86.90
2023-03-30T00:06:24.775Z,86.60
2023-03-30T00:08:57.517Z,86.60
2023-03-30T00:11:25.163Z,86.50
2023-03-30T00:13:57.370Z,86.50
2023-03-30T00:16:27.274Z,86.40
2023-03-30T00:18:54.242Z,86.00
2023-03-30T00:21:21.284Z,85.90
2023-03-30T00:23:52.317Z,85.50
2023-03-30T00:26:19.629Z,85.90
2023-03-30T00:28:50.570Z,85.70
2023-03-30T00:31:20.491Z,85.60
2023-03-30T00:33:49.652Z,85.50
2023-03-30T00:36:19.173Z,85.30
2023-03-30T00:38:50.484Z,85.30
2023-03-30T00:41:19.553Z,85.50
2023-03-30T00:44:03.793Z,85.50
2023-03-30T00:46:36.030Z,85.20
2023-03-30T00:49:09.835Z,85.30
2023-03-30T00:51:40.464Z,85.30
2023-03-30T00:54:12.946Z,85.20
2023-03-30T00:56:39.849Z,85.20
2023-03-30T00:59:07.428Z,84.80
2023-03-30T01:01:39.129Z,84.70
2023-03-30T01:04:09.886Z,84.80
2023-03-30T01:06:37.007Z,84.70
2023-03-30T01:09:07.115Z,84.70
2023-03-30T01:11:34.029Z,85.00
2023-03-30T01:14:06.472Z,84.80
2023-03-30T01:16:46.148Z,84.70
2023-03-30T01:19:46.459Z,84.90
2023-03-30T01:22:34.674Z,84.70
2023-03-30T01:25:22.781Z,85.00
2023-03-30T01:28:11.213Z,84.60
2023-03-30T01:30:55.317Z,84.80
2023-03-30T01:33:59.286Z,85.00
2023-03-30T01:36:52.473Z,84.60
2023-03-30T01:39:29.110Z,84.40
2023-03-30T01:42:06.545Z,84.10
2023-03-30T01:44:52.167Z,84.40
2023-03-30T01:47:34.523Z,84.00
2023-03-30T01:50:33.676Z,84.30
2023-03-30T01:53:17.603Z,84.70
2023-03-30T01:55:51.436Z,84.60
2023-03-30T01:58:32.899Z,84.20
2023-03-30T02:01:03.040Z,84.60
2023-03-30T02:03:34.303Z,84.50
2023-03-30T02:06:09.756Z,84.70
2023-03-30T02:08:36.918Z,84.70
2023-03-30T02:11:04.025Z,84.30
2023-03-30T02:13:31.927Z,84.30
2023-03-30T02:16:01.746Z,84.30
2023-03-30T02:18:33.452Z,83.70
2023-03-30T02:21:02.270Z,83.40
2023-03-30T02:23:33.731Z,83.10
2023-03-30T02:26:02.872Z,83.10
2023-03-30T02:28:32.578Z,82.60
2023-03-30T02:31:03.036Z,83.00
2023-03-30T02:33:44.169Z,83.00
2023-03-30T02:36:11.628Z,82.80
2023-03-30T02:39:26.537Z,82.50
2023-03-30T02:42:00.560Z,82.10
2023-03-30T02:44:42.939Z,82.40
2023-03-30T02:47:15.790Z,81.80
2023-03-30T02:49:56.209Z,81.30
2023-03-30T02:52:47.344Z,81.70
2023-03-30T02:55:25.614Z,81.90
2023-03-30T02:58:39.406Z,81.80
2023-03-30T03:01:19.051Z,81.70
2023-03-30T03:03:58.251Z,82.10
2023-03-30T03:06:32.315Z,82.60
2023-03-30T03:09:03.171Z,83.00
2023-03-30T03:11:32.370Z,83.30
2023-03-30T03:14:00.188Z,83.50
2023-03-30T03:16:31.753Z,83.40
2023-03-30T03:19:13.506Z,83.50
2023-03-30T03:21:43.153Z,83.30
2023-03-30T03:24:13.427Z,83.70
2023-03-30T03:27:01.090Z,83.90
2023-03-30T03:29:36.391Z,84.20
2023-03-30T03:32:03.820Z,84.50
2023-03-30T03:34:39.631Z,84.70
2023-03-30T03:37:09.284Z,84.80
2023-03-30T03:39:39.477Z,84.70
2023-03-30T03:42:11.439Z,84.70
2023-03-30T03:44:52.985Z,84.70
2023-03-30T03:47:20.557Z,84.60
2023-03-30T03:49:49.734Z,84.40
2023-03-30T03:52:21.304Z,84.40
2023-03-30T03:54:50.380Z,84.40
2023-03-30T03:57:23.996Z,84.70
2023-03-30T03:59:54.908Z,85.00
2023-03-30T04:02:23.914Z,85.20
2023-03-30T04:04:57.913Z,85.40
2023-03-30T04:07:31.039Z,85.50
2023-03-30T04:09:57.995Z,85.70
2023-03-30T04:12:42.725Z,85.90
2023-03-30T04:15:29.992Z,85.90
2023-03-30T04:18:34.331Z,85.80
2023-03-30T04:21:22.964Z,85.80
2023-03-30T04:24:12.165Z,85.80
2023-03-30T04:26:58.761Z,85.80
2023-03-30T04:29:46.100Z,85.90
2023-03-30T04:32:38.960Z,86.00
2023-03-30T04:35:25.959Z,86.20
2023-03-30T04:38:04.013Z,86.20
2023-03-30T04:40:46.313Z,86.40
2023-03-30T04:43:42.608Z,86.40
2023-03-30T04:46:29.927Z,86.30
2023-03-30T04:49:10.992Z,86.30
2023-03-30T04:51:56.629Z,86.40
2023-03-30T04:54:56.011Z,86.60
2023-03-30T04:57:43.744Z,86.80
2023-03-30T05:00:31.333Z,86.90
2023-03-30T05:03:22.405Z,86.90
2023-03-30T05:06:08.617Z,86.80
2023-03-30T05:09:10.129Z,86.60
2023-03-30T05:11:45.834Z,86.50
2023-03-30T05:14:38.183Z,86.30
2023-03-30T05:17:28.223Z,86.30
2023-03-30T05:20:08.433Z,86.30
2023-03-30T05:22:58.182Z,86.40
2023-03-30T05:25:56.843Z,86.30
2023-03-30T05:28:58.913Z,86.50
2023-03-30T05:31:28.981Z,86.60
2023-03-30T05:34:33.280Z,86.70
2023-03-30T05:37:22.989Z,86.50
2023-03-30T05:40:02.102Z,86.30
2023-03-30T05:43:07.375Z,86.30
2023-03-30T05:45:53.624Z,86.30
2023-03-30T05:48:52.718Z,86.30
2023-03-30T05:51:39.911Z,86.40
2023-03-30T05:54:18.893Z,86.40
2023-03-30T05:57:13.428Z,86.40
2023-03-30T06:00:11.032Z,86.50
2023-03-30T06:02:52.027Z,86.60
2023-03-30T06:05:24.450Z,86.20
2023-03-30T06:07:56.542Z,85.90
2023-03-30T06:10:26.459Z,85.60
2023-03-30T06:12:56.638Z,85.30
2023-03-30T06:15:51.507Z,85.30
2023-03-30T06:18:25.338Z,85.30
2023-03-30T06:21:07.256Z,85.40
2023-03-30T06:23:47.609Z,85.40
2023-03-30T06:26:18.978Z,85.30
2023-03-30T06:28:51.002Z,85.30
2023-03-30T06:31:20.579Z,84.70
2023-03-30T06:33:53.677Z,84.30
2023-03-30T06:36:20.830Z,84.00
2023-03-30T06:39:10.410Z,84.20
2023-03-30T06:41:37.323Z,83.50
2023-03-30T06:44:19.828Z,82.10
2023-03-30T06:46:47.927Z,81.40
2023-03-30T06:49:17.185Z,81.50
2023-03-30T06:51:47.201Z,82.00
2023-03-30T06:54:20.144Z,81.90
2023-03-30T06:56:54.121Z,82.00
2023-03-30T06:59:31.448Z,81.40
2023-03-30T07:02:22.999Z,81.30
2023-03-30T07:05:32.277Z,80.00
2023-03-30T07:08:27.613Z,80.70
2023-03-30T07:10:57.904Z,80.60
2023-03-30T07:13:34.506Z,80.40
2023-03-30T07:16:01.896Z,80.10
2023-03-30T07:18:34.017Z,79.40
2023-03-30T07:21:01.071Z,79.60
2023-03-30T07:23:38.991Z,79.20
2023-03-30T07:26:06.316Z,79.50
2023-03-30T07:28:56.885Z,79.70
2023-03-30T07:31:24.920Z,79.10
2023-03-30T07:33:57.054Z,79.60
2023-03-30T07:36:27.276Z,79.60
2023-03-30T07:38:59.844Z,79.00
2023-03-30T07:41:29.297Z,79.20
2023-03-30T07:44:01.688Z,78.60
2023-03-30T07:46:31.343Z,79.20
2023-03-30T07:49:00.704Z,79.40
2023-03-30T07:51:30.137Z,79.30
2023-03-30T07:54:03.953Z,79.30
2023-03-30T07:56:52.713Z,78.90
2023-03-30T07:59:23.681Z,79.00
2023-03-30T08:01:57.095Z,79.30
2023-03-30T08:04:39.444Z,79.10
2023-03-30T08:07:09.862Z,78.90
2023-03-30T08:09:37.217Z,79.00
2023-03-30T08:12:11.213Z,79.00
2023-03-30T08:14:39.375Z,79.30
2023-03-30T08:17:08.512Z,79.20
2023-03-30T08:19:38.558Z,79.50
2023-03-30T08:22:07.794Z,79.40
2023-03-30T08:24:34.772Z,79.50
2023-03-30T08:27:04.727Z,79.00
2023-03-30T08:29:31.721Z,78.60
2023-03-30T08:32:00.816Z,78.70
2023-03-30T08:34:30.298Z,78.40
2023-03-30T08:37:02.829Z,78.00
2023-03-30T08:39:31.581Z,77.50
2023-03-30T08:42:14.279Z,77.60
2023-03-30T08:44:42.759Z,76.70
2023-03-30T08:47:17.972Z,77.20
2023-03-30T08:49:47.652Z,76.50
2023-03-30T08:52:20.872Z,76.90
2023-03-30T08:54:48.832Z,76.80
2023-03-30T08:57:42.726Z,76.20
2023-03-30T09:00:20.007Z,76.20
2023-03-30T09:02:51.259Z,76.10
2023-03-30T09:05:22.846Z,76.00
2023-03-30T09:08:04.377Z,76.10
2023-03-30T09:10:37.130Z,76.30
2023-03-30T09:13:09.598Z,76.20
2023-03-30T09:16:18.284Z,76.20
2023-03-30T09:18:48.473Z,75.50
2023-03-30T09:21:17.872Z,75.40
2023-03-30T09:23:44.822Z,75.10
2023-03-30T09:26:35.610Z,75.20
2023-03-30T09:29:23.944Z,74.40
2023-03-30T09:32:22.600Z,73.20
2023-03-30T09:34:59.794Z,73.50
2023-03-30T09:37:29.813Z,73.70
2023-03-30T09:39:59.099Z,74.30
2023-03-30T09:43:01.060Z,74.10
2023-03-30T09:45:33.356Z,75.80
2023-03-30T09:48:09.402Z,76.70
2023-03-30T09:50:41.305Z,78.90
2023-03-30T09:53:27.733Z,79.80
2023-03-30T09:56:02.254Z,80.80
2023-03-30T09:58:29.354Z,81.20
2023-03-30T10:01:34.597Z,80.70
2023-03-30T10:04:11.510Z,80.90
2023-03-30T10:06:48.825Z,81.10
2023-03-30T10:09:20.216Z,80.70
2023-03-30T10:11:53.415Z,81.00
2023-03-30T10:14:31.723Z,80.10
2023-03-30T10:16:59.155Z,79.50
2023-03-30T10:19:31.160Z,77.80
2023-03-30T10:21:59.464Z,77.20
2023-03-30T10:24:31.647Z,76.90
2023-03-30T10:27:09.869Z,76.70
2023-03-30T10:29:39.332Z,76.80
2023-03-30T10:32:19.200Z,76.90
2023-03-30T10:34:54.445Z,74.80
2023-03-30T10:37:38.709Z,74.60
2023-03-30T10:40:16.127Z,74.50
2023-03-30T10:42:48.067Z,74.20
2023-03-30T10:45:18.270Z,74.20
2023-03-30T10:47:59.959Z,73.50
2023-03-30T10:50:46.473Z,73.60
2023-03-30T10:53:22.571Z,73.20
2023-03-30T10:56:26.380Z,72.70
2023-03-30T10:59:15.119Z,72.80
2023-03-30T11:02:03.260Z,73.00
2023-03-30T11:04:37.117Z,74.20
2023-03-30T11:07:07.095Z,74.30
2023-03-30T11:09:37.302Z,76.00
2023-03-30T11:12:13.887Z,78.30
2023-03-30T11:14:46.959Z,79.50
2023-03-30T11:17:21.991Z,78.90
2023-03-30T11:19:51.932Z,80.80
2023-03-30T11:22:43.852Z,81.60
2023-03-30T11:25:22.248Z,82.20
2023-03-30T11:28:03.895Z,81.60
2023-03-30T11:30:36.954Z,79.70
2023-03-30T11:33:25.910Z,78.10
2023-03-30T11:36:24.048Z,77.10
2023-03-30T11:39:04.057Z,76.00
2023-03-30T11:41:52.643Z,74.80
2023-03-30T11:44:21.880Z,74.00
2023-03-30T11:47:14.076Z,74.30
2023-03-30T11:50:07.445Z,74.10
2023-03-30T11:52:43.215Z,73.70
2023-03-30T11:55:23.872Z,72.70
2023-03-30T11:58:36.029Z,72.80
2023-03-30T12:01:06.181Z,72.90
2023-03-30T12:03:43.149Z,73.70
2023-03-30T12:06:29.762Z,71.90
2023-03-30T12:09:36.273Z,72.20
2023-03-30T12:12:15.706Z,73.10
2023-03-30T12:14:52.011Z,74.50
2023-03-30T12:17:43.122Z,74.40
2023-03-30T12:20:10.075Z,73.80
2023-03-30T12:22:47.406Z,73.10
2023-03-30T12:25:38.193Z,71.20
2023-03-30T12:28:11.289Z,71.90
2023-03-30T12:30:55.040Z,73.00
2023-03-30T12:33:36.918Z,69.70
2023-03-30T12:36:39.971Z,72.00
2023-03-30T12:39:36.216Z,70.80
2023-03-30T12:42:35.138Z,71.00
2023-03-30T12:45:24.947Z,71.70
2023-03-30T12:48:16.408Z,70.70
2023-03-30T12:50:57.688Z,71.20
2023-03-30T12:54:01.870Z,71.10
2023-03-30T12:56:55.823Z,71.50
2023-03-30T13:00:07.423Z,71.00
2023-03-30T13:03:10.003Z,71.00
2023-03-30T13:05:40.286Z,71.20
2023-03-30T13:08:43.857Z,71.40
2023-03-30T13:11:13.854Z,71.00
2023-03-30T13:13:58.143Z,71.90
2023-03-30T13:16:56.995Z,71.10
2023-03-30T13:19:32.705Z,69.90
2023-03-30T13:22:11.302Z,70.00
2023-03-30T13:24:46.814Z,70.20
2023-03-30T13:27:19.010Z,70.80
2023-03-30T13:29:52.444Z,70.10
2023-03-30T13:32:36.352Z,69.30
2023-03-30T13:35:28.355Z,69.80
2023-03-30T13:38:10.109Z,68.50
2023-03-30T13:41:04.451Z,68.60
2023-03-30T13:43:47.329Z,69.00
2023-03-30T13:46:35.551Z,69.20
2023-03-30T13:49:33.373Z,69.80
2023-03-30T13:52:15.675Z,69.30
2023-03-30T13:54:42.803Z,69.60
2023-03-30T13:57:13.972Z,70.90
2023-03-30T13:59:50.512Z,71.20
2023-03-30T14:02:20.937Z,71.60
2023-03-30T14:04:50.580Z,71.20
2023-03-30T14:07:19.249Z,70.00
2023-03-30T14:10:15.686Z,70.40
2023-03-30T14:12:47.184Z,70.60
2023-03-30T14:15:17.280Z,69.00
2023-03-30T14:17:48.210Z,68.70
2023-03-30T14:20:33.759Z,68.70
2023-03-30T14:23:06.724Z,68.10
2023-03-30T14:25:39.296Z,69.00
2023-03-30T14:28:15.547Z,68.60
2023-03-30T14:30:53.338Z,68.00
2023-03-30T14:33:21.554Z,69.00
2023-03-30T14:36:08.912Z,68.50
2023-03-30T14:38:42.416Z,69.00
2023-03-30T14:41:27.657Z,69.50
2023-03-30T14:44:04.059Z,69.60
2023-03-30T14:46:41.372Z,69.30
2023-03-30T14:49:12.179Z,68.30
2023-03-30T14:51:42.807Z,68.60
2023-03-30T14:54:17.450Z,69.30
2023-03-30T14:56:45.652Z,68.20
2023-03-30T14:59:15.982Z,68.80
2023-03-30T15:01:45.057Z,69.30
2023-03-30T15:04:15.266Z,68.50
2023-03-30T15:06:46.109Z,68.30
2023-03-30T15:09:20.413Z,68.60
2023-03-30T15:12:01.255Z,68.60
2023-03-30T15:14:35.407Z,68.50
2023-03-30T15:17:09.641Z,69.10
2023-03-30T15:19:41.091Z,69.50
2023-03-30T15:22:14.701Z,69.10
2023-03-30T15:24:44.138Z,69.10
2023-03-30T15:27:12.408Z,69.80
2023-03-30T15:29:40.383Z,69.00
2023-03-30T15:32:19.162Z,69.10
2023-03-30T15:35:05.562Z,68.20
2023-03-30T15:37:33.204Z,69.10
2023-03-30T15:40:00.415Z,69.50
2023-03-30T15:42:32.396Z,68.60
2023-03-30T15:45:14.537Z,68.50
2023-03-30T15:47:43.809Z,68.50
2023-03-30T15:50:13.896Z,68.40
2023-03-30T15:52:44.778Z,68.30
2023-03-30T15:55:19.193Z,68.30
2023-03-30T15:57:51.349Z,68.80
2023-03-30T16:00:22.918Z,68.80
2023-03-30T16:02:59.884Z,69.50
2023-03-30T16:05:31.050Z,68.70
2023-03-30T16:08:02.656Z,68.30
2023-03-30T16:10:31.299Z,68.20
2023-03-30T16:12:58.592Z,68.30
2023-03-30T16:15:27.651Z,68.40
2023-03-30T16:18:00.623Z,68.40
2023-03-30T16:20:29.846Z,68.60
2023-03-30T16:22:59.510Z,69.00
2023-03-30T16:25:41.686Z,68.90
2023-03-30T16:28:20.165Z,69.60
2023-03-30T16:30:51.901Z,70.30
2023-03-30T16:33:21.356Z,70.40
2023-03-30T16:35:48.395Z,70.80
2023-03-30T16:38:18.036Z,70.70
2023-03-30T16:40:48.884Z,71.00
2023-03-30T16:43:18.864Z,71.40
2023-03-30T16:45:48.412Z,71.40
2023-03-30T16:48:22.010Z,71.50
2023-03-30T16:50:56.697Z,71.80
2023-03-30T16:53:26.156Z,72.10
2023-03-30T16:55:57.537Z,72.70
2023-03-30T16:58:27.437Z,73.00
2023-03-30T17:01:05.287Z,73.00
2023-03-30T17:03:32.556Z,73.20
2023-03-30T17:05:59.545Z,73.30
2023-03-30T17:08:31.049Z,73.00
2023-03-30T17:11:01.079Z,73.40
2023-03-30T17:13:30.727Z,73.80
2023-03-30T17:16:02.836Z,74.00
2023-03-30T17:18:32.092Z,74.00
2023-03-30T17:21:00.152Z,74.30
2023-03-30T17:23:31.995Z,74.10
2023-03-30T17:26:01.863Z,74.40
2023-03-30T17:28:32.033Z,74.40
2023-03-30T17:31:00.547Z,74.40
2023-03-30T17:33:30.825Z,74.40
2023-03-30T17:36:00.428Z,74.60
2023-03-30T17:38:32.872Z,74.10
2023-03-30T17:41:00.104Z,74.40
2023-03-30T17:43:29.119Z,74.70
2023-03-30T17:45:58.525Z,75.10
2023-03-30T17:48:26.152Z,75.40
2023-03-30T17:50:55.647Z,75.60
2023-03-30T17:53:27.158Z,75.70
2023-03-30T17:55:56.638Z,75.60
2023-03-30T17:58:34.495Z,75.50
2023-03-30T18:01:02.709Z,75.70
2023-03-30T18:03:32.069Z,75.90
2023-03-30T18:06:00.055Z,75.70
2023-03-30T18:08:29.531Z,75.30
2023-03-30T18:10:57.934Z,75.20
2023-03-30T18:13:28.029Z,75.40
2023-03-30T18:15:58.573Z,74.90
2023-03-30T18:18:31.981Z,75.00
2023-03-30T18:21:03.356Z,74.80
2023-03-30T18:23:31.678Z,75.00
2023-03-30T18:26:02.011Z,75.00
2023-03-30T18:28:31.606Z,75.20
2023-03-30T18:31:01.092Z,75.40
2023-03-30T18:33:30.282Z,75.50
2023-03-30T18:36:05.101Z,75.70
2023-03-30T18:38:33.848Z,75.70
2023-03-30T18:41:01.518Z,76.00
2023-03-30T18:43:28.702Z,76.00
2023-03-30T18:46:02.113Z,76.20
2023-03-30T18:48:31.724Z,76.20
2023-03-30T18:51:03.076Z,76.20
2023-03-30T18:53:32.505Z,76.10
2023-03-30T18:56:01.932Z,76.10
2023-03-30T18:58:33.648Z,76.20
2023-03-30T19:01:00.954Z,76.20
2023-03-30T19:03:33.154Z,76.20
2023-03-30T19:06:02.458Z,76.20
2023-03-30T19:08:31.635Z,76.00
2023-03-30T19:10:58.570Z,76.10
2023-03-30T19:13:30.671Z,76.10
2023-03-30T19:16:05.969Z,76.20
2023-03-30T19:18:35.306Z,76.30
2023-03-30T19:21:04.612Z,76.30
2023-03-30T19:23:36.855Z,76.60
2023-03-30T19:26:09.129Z,76.70
2023-03-30T19:28:36.138Z,76.90
2023-03-30T19:31:13.269Z,77.10
2023-03-30T19:33:40.534Z,77.40
2023-03-30T19:36:07.605Z,77.60
2023-03-30T19:38:37.271Z,77.90
2023-03-30T19:41:08.236Z,78.00
2023-03-30T19:43:35.522Z,77.90
2023-03-30T19:46:02.476Z,77.90
2023-03-30T19:48:29.493Z,78.20
2023-03-30T19:50:59.386Z,78.40
2023-03-30T19:53:26.353Z,78.60
2023-03-30T19:55:57.913Z,78.90
2023-03-30T19:58:24.869Z,79.00
2023-03-30T20:00:51.818Z,79.00
2023-03-30T20:03:26.765Z,79.00
2023-03-30T20:05:56.624Z,79.00
2023-03-30T20:08:24.987Z,79.10
2023-03-30T20:10:58.250Z,80.80
2023-03-30T20:13:28.509Z,81.70
2023-03-30T20:15:56.095Z,83.20
2023-03-30T20:18:23.309Z,84.20
2023-03-30T20:20:52.743Z,84.60
2023-03-30T20:23:19.773Z,85.00
2023-03-30T20:25:50.469Z,85.50
2023-03-30T20:28:17.632Z,85.50
2023-03-30T20:30:44.612Z,85.20
2023-03-30T20:33:14.632Z,85.50
2023-03-30T20:35:44.256Z,85.70
2023-03-30T20:38:15.666Z,86.10
2023-03-30T20:40:49.772Z,86.20
2023-03-30T20:43:16.714Z,86.50
2023-03-30T20:45:51.012Z,86.40
2023-03-30T20:48:26.685Z,86.20
2023-03-30T20:50:56.220Z,86.30
2023-03-30T20:53:25.549Z,86.30
2023-03-30T20:55:55.722Z,86.20
2023-03-30T20:58:26.538Z,86.30
2023-03-30T21:01:03.269Z,86.20
2023-03-30T21:03:35.528Z,86.30
2023-03-30T21:06:06.480Z,86.30
2023-03-30T21:08:33.983Z,86.20
2023-03-30T21:11:01.213Z,86.50
2023-03-30T21:13:28.185Z,85.90
2023-03-30T21:15:59.258Z,86.10
2023-03-30T21:18:31.338Z,86.20
2023-03-30T21:21:01.100Z,86.30
2023-03-30T21:23:35.187Z,86.40
2023-03-30T21:26:04.096Z,86.60
2023-03-30T21:28:36.318Z,86.90
2023-03-30T21:31:07.845Z,86.90
2023-03-30T21:33:39.698Z,87.10
2023-03-30T21:36:07.359Z,86.20
2023-03-30T21:38:35.677Z,86.20
2023-03-30T21:41:07.392Z,86.70
2023-03-30T21:43:40.035Z,85.60
2023-03-30T21:46:14.318Z,86.20
2023-03-30T21:48:42.246Z,86.10
2023-03-30T21:51:22.492Z,85.90
2023-03-30T21:53:52.656Z,86.50
2023-03-30T21:56:23.644Z,87.10
2023-03-30T21:58:53.319Z,86.40
2023-03-30T22:01:20.794Z,86.50
2023-03-30T22:03:47.987Z,86.50
2023-03-30T22:06:18.378Z,86.30
2023-03-30T22:08:48.552Z,86.50
2023-03-30T22:11:19.615Z,86.80
2023-03-30T22:13:48.477Z,87.10
2023-03-30T22:16:22.422Z,87.30
2023-03-30T22:18:49.951Z,87.60
2023-03-30T22:21:24.185Z,88.00
2023-03-30T22:23:52.128Z,88.20
2023-03-30T22:26:19.163Z,88.10
2023-03-30T22:28:48.497Z,88.40
2023-03-30T22:31:15.664Z,88.20
2023-03-30T22:33:42.869Z,87.90
2023-03-30T22:36:17.287Z,88.00
2023-03-30T22:38:49.367Z,88.10
2023-03-30T22:41:23.735Z,88.20
2023-03-30T22:43:56.909Z,88.00
2023-03-30T22:46:25.208Z,88.20
2023-03-30T22:48:52.583Z,88.20
2023-03-30T22:51:26.403Z,88.60
2023-03-30T22:53:57.793Z,88.50
2023-03-30T22:56:25.008Z,88.80
2023-03-30T22:58:56.692Z,89.00
2023-03-30T23:01:23.848Z,89.10
2023-03-30T23:03:54.489Z,89.10
2023-03-30T23:06:21.733Z,89.10
2023-03-30T23:08:52.641Z,89.10
2023-03-30T23:11:21.960Z,89.40
2023-03-30T23:13:49.210Z,88.80
2023-03-30T23:16:21.920Z,88.70
2023-03-30T23:18:52.136Z,88.40
2023-03-30T23:21:22.316Z,88.20
2023-03-30T23:23:49.406Z,88.00
2023-03-30T23:26:19.613Z,88.00
2023-03-30T23:28:46.684Z,88.10
2023-03-30T23:31:18.953Z,87.90
2023-03-30T23:33:46.234Z,87.30
2023-03-30T23:36:13.993Z,87.30
2023-03-30T23:38:45.463Z,87.00
2023-03-30T23:41:19.128Z,87.00
2023-03-30T23:43:48.587Z,87.10
2023-03-30T23:46:15.753Z,86.50
2023-03-30T23:48:42.735Z,86.70
2023-03-30T23:51:09.750Z,86.70
2023-03-30T23:53:40.282Z,85.50
2023-03-30T23:56:13.012Z,85.70
2023-03-30T23:58:42.806Z,85.80
